DLH78J EDDH-EDDK
Flight info
| Callsign | DLH78J |
|---|---|
| Flight time | 0h 46m |
| Altitude | 34000 |
| Route | IDEKO7G IDEKO N850 NIE DCT LARBU/N0441F340 DCT PODER Z189 RUNER/N0397F240 T858 KOPAG KOPAG1G |
| Aircraft | A320/M-SDE3FGHIRWY/LB1 |
Departure
| Time | 2026-04-22 18:14 |
|---|---|
| Airport | Hamburg Helmut Schmidt Airport (EDDH) |
Arrival
| Time | 2026-04-22 19:00 |
|---|---|
| Airport | Cologne Bonn Airport (EDDK) |
| Time | Latitude | Longitude | Altitude | Speed | Heading |
|---|---|---|---|---|---|
| 2026-04-22 17:29 | 53.63169 | 10.00365 | 51 ft | 0 kts | 87° |
| 2026-04-22 18:04 | 53.63169 | 10.00364 | 51 ft | 1 kts | 87° |
| 2026-04-22 18:05 | 53.63169 | 10.00326 | 51 ft | 4 kts | 99° |
| 2026-04-22 18:05 | 53.63177 | 10.00284 | 50 ft | 4 kts | 125° |
| 2026-04-22 18:05 | 53.63196 | 10.00254 | 49 ft | 4 kts | 161° |
| 2026-04-22 18:05 | 53.63210 | 10.00248 | 51 ft | 0 kts | 176° |
| 2026-04-22 18:10 | 53.63206 | 10.00249 | 51 ft | 3 kts | 175° |
| 2026-04-22 18:10 | 53.63138 | 10.00261 | 51 ft | 13 kts | 189° |
| 2026-04-22 18:10 | 53.63061 | 10.00252 | 48 ft | 9 kts | 201° |
| 2026-04-22 18:10 | 53.63010 | 10.00201 | 51 ft | 8 kts | 213° |
| 2026-04-22 18:11 | 53.62968 | 10.00153 | 47 ft | 7 kts | 213° |
| 2026-04-22 18:11 | 53.62931 | 10.00112 | 51 ft | 8 kts | 213° |
| 2026-04-22 18:11 | 53.62885 | 10.00060 | 50 ft | 7 kts | 214° |
| 2026-04-22 18:11 | 53.62855 | 9.99999 | 50 ft | 6 kts | 242° |
| 2026-04-22 18:12 | 53.62835 | 9.99933 | 47 ft | 6 kts | 242° |
| 2026-04-22 18:12 | 53.62813 | 9.99864 | 48 ft | 7 kts | 242° |
| 2026-04-22 18:12 | 53.62807 | 9.99805 | 49 ft | 9 kts | 289° |
| 2026-04-22 18:12 | 53.62835 | 9.99769 | 49 ft | 0 kts | 334° |
| 2026-04-22 18:13 | 53.62838 | 9.99767 | 49 ft | 4 kts | 334° |
| 2026-04-22 18:14 | 53.63040 | 9.99595 | 49 ft | 69 kts | 332° |
| 2026-04-22 18:14 | 53.63660 | 9.99054 | 50 ft | 129 kts | 333° |
| 2026-04-22 18:14 | 53.64582 | 9.98261 | 285 ft | 156 kts | 332° |
| 2026-04-22 18:14 | 53.65551 | 9.97485 | 1054 ft | 154 kts | 332° |
| 2026-04-22 18:15 | 53.66534 | 9.96634 | 1588 ft | 168 kts | 331° |
| 2026-04-22 18:15 | 53.67612 | 9.95654 | 2069 ft | 183 kts | 331° |
| 2026-04-22 18:15 | 53.68807 | 9.94573 | 2477 ft | 205 kts | 332° |
| 2026-04-22 18:15 | 53.70078 | 9.93453 | 3373 ft | 207 kts | 332° |
| 2026-04-22 18:16 | 53.71177 | 9.91901 | 4199 ft | 213 kts | 302° |
| 2026-04-22 18:16 | 53.71550 | 9.89411 | 4764 ft | 238 kts | 268° |
| 2026-04-22 18:16 | 53.71171 | 9.86518 | 5215 ft | 264 kts | 256° |
| 2026-04-22 18:16 | 53.70555 | 9.83532 | 6020 ft | 273 kts | 252° |
| 2026-04-22 18:17 | 53.69866 | 9.80509 | 6890 ft | 280 kts | 251° |
| 2026-04-22 18:17 | 53.69140 | 9.77406 | 7672 ft | 287 kts | 251° |
| 2026-04-22 18:17 | 53.68404 | 9.74240 | 8540 ft | 292 kts | 251° |
| 2026-04-22 18:17 | 53.67698 | 9.71015 | 9423 ft | 295 kts | 253° |
| 2026-04-22 18:18 | 53.67043 | 9.67715 | 10103 ft | 297 kts | 255° |
| 2026-04-22 18:18 | 53.66385 | 9.64358 | 10772 ft | 305 kts | 251° |
| 2026-04-22 18:18 | 53.65337 | 9.61103 | 11093 ft | 332 kts | 233° |
| 2026-04-22 18:18 | 53.63546 | 9.58442 | 11402 ft | 354 kts | 210° |
| 2026-04-22 18:19 | 53.61206 | 9.57074 | 11986 ft | 363 kts | 187° |
| 2026-04-22 18:19 | 53.58691 | 9.56762 | 12798 ft | 364 kts | 183° |
| 2026-04-22 18:19 | 53.56161 | 9.56370 | 13586 ft | 367 kts | 185° |
| 2026-04-22 18:19 | 53.53614 | 9.55827 | 14353 ft | 370 kts | 187° |
| 2026-04-22 18:20 | 53.51057 | 9.55184 | 15018 ft | 374 kts | 187° |
| 2026-04-22 18:20 | 53.48467 | 9.54587 | 15720 ft | 376 kts | 186° |
| 2026-04-22 18:20 | 53.45894 | 9.54076 | 16448 ft | 377 kts | 185° |
| 2026-04-22 18:20 | 53.43278 | 9.53634 | 17173 ft | 380 kts | 184° |
| 2026-04-22 18:21 | 53.40581 | 9.53166 | 17662 ft | 388 kts | 185° |
| 2026-04-22 18:21 | 53.37880 | 9.52633 | 18189 ft | 395 kts | 186° |
| 2026-04-22 18:21 | 53.35168 | 9.52036 | 18742 ft | 399 kts | 186° |
| 2026-04-22 18:21 | 53.32394 | 9.51422 | 19478 ft | 396 kts | 185° |
| 2026-04-22 18:22 | 53.29688 | 9.50886 | 20076 ft | 397 kts | 185° |
| 2026-04-22 18:22 | 53.26941 | 9.50383 | 20323 ft | 397 kts | 185° |
| 2026-04-22 18:22 | 53.24205 | 9.49883 | 20343 ft | 396 kts | 185° |
| 2026-04-22 18:22 | 53.21463 | 9.49382 | 20315 ft | 396 kts | 184° |
| 2026-04-22 18:23 | 53.18732 | 9.48904 | 20334 ft | 395 kts | 185° |
| 2026-04-22 18:23 | 53.16002 | 9.48380 | 20362 ft | 395 kts | 185° |
| 2026-04-22 18:23 | 53.13268 | 9.47821 | 20361 ft | 395 kts | 185° |
| 2026-04-22 18:24 | 53.07807 | 9.46697 | 20360 ft | 395 kts | 185° |
| 2026-04-22 18:24 | 53.05079 | 9.46150 | 20361 ft | 395 kts | 185° |
| 2026-04-22 18:24 | 52.99617 | 9.45038 | 20360 ft | 396 kts | 189° |
| 2026-04-22 18:25 | 52.96966 | 9.43679 | 20785 ft | 401 kts | 198° |
| 2026-04-22 18:25 | 52.94329 | 9.42160 | 21383 ft | 403 kts | 197° |
| 2026-04-22 18:25 | 52.91669 | 9.40648 | 21948 ft | 405 kts | 197° |
| 2026-04-22 18:26 | 52.86309 | 9.37619 | 23022 ft | 410 kts | 197° |
| 2026-04-22 18:26 | 52.83600 | 9.36095 | 23548 ft | 412 kts | 197° |
| 2026-04-22 18:26 | 52.80880 | 9.34560 | 24045 ft | 414 kts | 197° |
| 2026-04-22 18:26 | 52.78147 | 9.33015 | 24457 ft | 417 kts | 197° |
| 2026-04-22 18:27 | 52.75390 | 9.31457 | 24867 ft | 419 kts | 196° |
| 2026-04-22 18:27 | 52.72622 | 9.29902 | 25276 ft | 422 kts | 196° |
| 2026-04-22 18:27 | 52.69835 | 9.28337 | 25675 ft | 424 kts | 196° |
| 2026-04-22 18:27 | 52.67039 | 9.26761 | 26057 ft | 427 kts | 196° |
| 2026-04-22 18:28 | 52.64220 | 9.25173 | 26449 ft | 429 kts | 196° |
| 2026-04-22 18:28 | 52.61382 | 9.23584 | 26829 ft | 432 kts | 195° |
| 2026-04-22 18:28 | 52.58538 | 9.21999 | 27203 ft | 434 kts | 195° |
| 2026-04-22 18:28 | 52.55663 | 9.20396 | 27586 ft | 437 kts | 195° |
| 2026-04-22 18:29 | 52.52782 | 9.18790 | 27959 ft | 439 kts | 195° |
| 2026-04-22 18:29 | 52.49883 | 9.17170 | 28339 ft | 441 kts | 195° |
| 2026-04-22 18:29 | 52.47006 | 9.15564 | 28701 ft | 444 kts | 195° |
| 2026-04-22 18:29 | 52.44074 | 9.13925 | 29048 ft | 446 kts | 195° |
| 2026-04-22 18:30 | 52.41133 | 9.12286 | 29385 ft | 448 kts | 195° |
| 2026-04-22 18:30 | 52.35186 | 9.09004 | 30020 ft | 453 kts | 195° |
| 2026-04-22 18:30 | 52.32193 | 9.07357 | 30350 ft | 455 kts | 195° |
| 2026-04-22 18:31 | 52.29186 | 9.05699 | 30631 ft | 457 kts | 195° |
| 2026-04-22 18:31 | 52.26161 | 9.04031 | 30876 ft | 460 kts | 195° |
| 2026-04-22 18:31 | 52.23122 | 9.02358 | 31121 ft | 462 kts | 195° |
| 2026-04-22 18:31 | 52.20072 | 9.00684 | 31453 ft | 462 kts | 195° |
| 2026-04-22 18:32 | 52.17023 | 8.99014 | 31797 ft | 462 kts | 195° |
| 2026-04-22 18:32 | 52.13985 | 8.97350 | 32139 ft | 462 kts | 195° |
| 2026-04-22 18:32 | 52.10930 | 8.95673 | 32470 ft | 462 kts | 195° |
| 2026-04-22 18:32 | 52.07915 | 8.94015 | 32806 ft | 463 kts | 195° |
| 2026-04-22 18:33 | 52.04835 | 8.92333 | 33129 ft | 463 kts | 195° |
| 2026-04-22 18:33 | 52.01780 | 8.90671 | 33467 ft | 463 kts | 195° |
| 2026-04-22 18:33 | 51.98729 | 8.89010 | 33793 ft | 463 kts | 195° |
| 2026-04-22 18:33 | 51.95672 | 8.87344 | 33572 ft | 466 kts | 196° |
| 2026-04-22 18:34 | 51.92618 | 8.85684 | 32900 ft | 463 kts | 195° |
| 2026-04-22 18:34 | 51.89553 | 8.84022 | 32239 ft | 461 kts | 195° |
| 2026-04-22 18:34 | 51.86520 | 8.82385 | 31597 ft | 459 kts | 195° |
| 2026-04-22 18:34 | 51.83550 | 8.80528 | 30967 ft | 458 kts | 205° |
| 2026-04-22 18:35 | 51.80922 | 8.77643 | 30344 ft | 458 kts | 217° |
| 2026-04-22 18:35 | 51.78460 | 8.74401 | 29618 ft | 454 kts | 217° |
| 2026-04-22 18:35 | 51.76030 | 8.71178 | 28919 ft | 451 kts | 218° |
| 2026-04-22 18:35 | 51.73622 | 8.67971 | 28230 ft | 448 kts | 218° |
| 2026-04-22 18:36 | 51.71254 | 8.64826 | 27567 ft | 445 kts | 218° |
| 2026-04-22 18:36 | 51.68847 | 8.61645 | 26893 ft | 441 kts | 218° |
| 2026-04-22 18:36 | 51.66470 | 8.58519 | 26283 ft | 438 kts | 218° |
| 2026-04-22 18:36 | 51.64124 | 8.55435 | 25705 ft | 433 kts | 218° |
| 2026-04-22 18:37 | 51.61807 | 8.52393 | 25129 ft | 429 kts | 218° |
| 2026-04-22 18:37 | 51.59498 | 8.49363 | 24582 ft | 425 kts | 218° |
| 2026-04-22 18:37 | 51.57986 | 8.47382 | 24219 ft | 422 kts | 218° |
| 2026-04-22 18:37 | 51.54953 | 8.43422 | 23411 ft | 418 kts | 218° |
| 2026-04-22 18:38 | 51.52738 | 8.40537 | 22790 ft | 415 kts | 218° |
| 2026-04-22 18:38 | 51.50473 | 8.37590 | 22152 ft | 412 kts | 218° |
| 2026-04-22 18:38 | 51.48286 | 8.34743 | 21562 ft | 410 kts | 218° |
| 2026-04-22 18:39 | 51.44583 | 8.29928 | 20571 ft | 407 kts | 219° |
| 2026-04-22 18:39 | 51.41675 | 8.26156 | 19811 ft | 405 kts | 219° |
| 2026-04-22 18:39 | 51.40200 | 8.24252 | 19430 ft | 404 kts | 219° |
| 2026-04-22 18:39 | 51.37312 | 8.20515 | 18697 ft | 402 kts | 219° |
| 2026-04-22 18:40 | 51.35842 | 8.18610 | 18278 ft | 401 kts | 219° |
| 2026-04-22 18:40 | 51.33682 | 8.15819 | 17656 ft | 400 kts | 219° |
| 2026-04-22 18:40 | 51.31512 | 8.13019 | 17039 ft | 399 kts | 219° |
| 2026-04-22 18:40 | 51.29355 | 8.10238 | 16442 ft | 398 kts | 219° |
| 2026-04-22 18:41 | 51.27225 | 8.07500 | 15852 ft | 397 kts | 219° |
| 2026-04-22 18:41 | 51.25079 | 8.04746 | 15288 ft | 396 kts | 219° |
| 2026-04-22 18:41 | 51.22931 | 8.01993 | 14715 ft | 395 kts | 219° |
| 2026-04-22 18:41 | 51.20796 | 7.99271 | 14142 ft | 393 kts | 219° |
| 2026-04-22 18:42 | 51.18662 | 7.96562 | 13544 ft | 391 kts | 218° |
| 2026-04-22 18:42 | 51.16542 | 7.93862 | 12931 ft | 389 kts | 219° |
| 2026-04-22 18:42 | 51.14439 | 7.91179 | 12459 ft | 383 kts | 218° |
| 2026-04-22 18:42 | 51.12403 | 7.88575 | 12324 ft | 367 kts | 219° |
| 2026-04-22 18:43 | 51.10460 | 7.86087 | 12353 ft | 349 kts | 219° |
| 2026-04-22 18:43 | 51.08616 | 7.83723 | 12352 ft | 333 kts | 218° |
| 2026-04-22 18:43 | 51.06853 | 7.81463 | 12351 ft | 319 kts | 218° |
| 2026-04-22 18:43 | 51.05137 | 7.79263 | 12354 ft | 315 kts | 219° |
| 2026-04-22 18:44 | 51.03438 | 7.77083 | 12354 ft | 314 kts | 218° |
| 2026-04-22 18:44 | 51.01903 | 7.74646 | 12335 ft | 312 kts | 236° |
| 2026-04-22 18:44 | 51.00811 | 7.71682 | 11987 ft | 310 kts | 243° |
| 2026-04-22 18:44 | 50.99815 | 7.68654 | 11627 ft | 309 kts | 243° |
| 2026-04-22 18:45 | 50.99057 | 7.66340 | 11360 ft | 307 kts | 243° |
| 2026-04-22 18:45 | 50.98082 | 7.63334 | 11020 ft | 306 kts | 243° |
| 2026-04-22 18:45 | 50.97116 | 7.60335 | 10684 ft | 304 kts | 243° |
| 2026-04-22 18:45 | 50.96167 | 7.57374 | 10495 ft | 297 kts | 243° |
| 2026-04-22 18:46 | 50.95245 | 7.54497 | 10366 ft | 287 kts | 243° |
| 2026-04-22 18:46 | 50.94357 | 7.51722 | 10253 ft | 278 kts | 243° |
| 2026-04-22 18:46 | 50.93499 | 7.49036 | 10086 ft | 270 kts | 243° |
| 2026-04-22 18:46 | 50.92658 | 7.46399 | 9812 ft | 266 kts | 243° |
| 2026-04-22 18:47 | 50.91826 | 7.43786 | 9527 ft | 265 kts | 243° |
| 2026-04-22 18:47 | 50.91012 | 7.41217 | 9210 ft | 263 kts | 246° |
| 2026-04-22 18:47 | 50.90609 | 7.38445 | 8898 ft | 258 kts | 275° |
| 2026-04-22 18:47 | 50.91111 | 7.35753 | 8566 ft | 251 kts | 305° |
| 2026-04-22 18:48 | 50.92136 | 7.33588 | 8331 ft | 248 kts | 313° |
| 2026-04-22 18:48 | 50.93260 | 7.31501 | 8328 ft | 250 kts | 313° |
| 2026-04-22 18:48 | 50.94406 | 7.29406 | 8327 ft | 251 kts | 313° |
| 2026-04-22 18:48 | 50.95553 | 7.27319 | 8332 ft | 251 kts | 313° |
| 2026-04-22 18:49 | 50.96693 | 7.25246 | 8101 ft | 249 kts | 313° |
| 2026-04-22 18:49 | 50.97833 | 7.23179 | 7748 ft | 248 kts | 313° |
| 2026-04-22 18:49 | 50.98965 | 7.21129 | 7416 ft | 247 kts | 313° |
| 2026-04-22 18:49 | 51.00097 | 7.19084 | 7085 ft | 246 kts | 313° |
| 2026-04-22 18:50 | 51.01210 | 7.17077 | 6762 ft | 245 kts | 313° |
| 2026-04-22 18:50 | 51.02334 | 7.15053 | 6428 ft | 244 kts | 313° |
| 2026-04-22 18:50 | 51.03456 | 7.13038 | 6095 ft | 243 kts | 314° |
| 2026-04-22 18:50 | 51.04424 | 7.11316 | 5793 ft | 242 kts | 314° |
| 2026-04-22 18:51 | 51.05536 | 7.09325 | 5476 ft | 241 kts | 313° |
| 2026-04-22 18:51 | 51.06647 | 7.07332 | 5147 ft | 239 kts | 313° |
| 2026-04-22 18:51 | 51.07746 | 7.05368 | 5007 ft | 239 kts | 313° |
| 2026-04-22 18:51 | 51.08770 | 7.03287 | 5017 ft | 241 kts | 297° |
| 2026-04-22 18:52 | 51.09300 | 7.00755 | 5024 ft | 243 kts | 285° |
| 2026-04-22 18:52 | 51.09683 | 6.98133 | 5032 ft | 244 kts | 284° |
| 2026-04-22 18:52 | 51.10049 | 6.95501 | 5033 ft | 243 kts | 283° |
| 2026-04-22 18:52 | 51.10413 | 6.92879 | 5039 ft | 243 kts | 283° |
| 2026-04-22 18:53 | 51.10778 | 6.90245 | 5032 ft | 243 kts | 283° |
| 2026-04-22 18:53 | 51.11134 | 6.87664 | 5030 ft | 233 kts | 283° |
| 2026-04-22 18:53 | 51.11448 | 6.85220 | 5030 ft | 218 kts | 277° |
| 2026-04-22 18:53 | 51.11194 | 6.82971 | 5086 ft | 199 kts | 233° |
| 2026-04-22 18:54 | 51.10150 | 6.81544 | 5200 ft | 205 kts | 199° |
| 2026-04-22 18:54 | 51.08782 | 6.81240 | 5029 ft | 196 kts | 168° |
| 2026-04-22 18:54 | 51.07577 | 6.82030 | 4900 ft | 189 kts | 137° |
| 2026-04-22 18:54 | 51.06808 | 6.83681 | 4773 ft | 184 kts | 113° |
| 2026-04-22 18:55 | 51.06077 | 6.85298 | 4903 ft | 186 kts | 134° |
| 2026-04-22 18:55 | 51.05134 | 6.86734 | 4986 ft | 188 kts | 133° |
| 2026-04-22 18:55 | 51.04206 | 6.88189 | 4998 ft | 188 kts | 133° |
| 2026-04-22 18:55 | 51.03294 | 6.89655 | 4874 ft | 186 kts | 132° |
| 2026-04-22 18:56 | 51.02397 | 6.91129 | 4668 ft | 186 kts | 132° |
| 2026-04-22 18:56 | 51.01505 | 6.92619 | 4448 ft | 186 kts | 131° |
| 2026-04-22 18:56 | 51.00635 | 6.94201 | 4080 ft | 194 kts | 128° |
| 2026-04-22 18:56 | 50.99726 | 6.95822 | 3701 ft | 201 kts | 133° |
| 2026-04-22 18:57 | 50.98690 | 6.97401 | 3201 ft | 208 kts | 135° |
| 2026-04-22 18:57 | 50.97632 | 6.98951 | 2853 ft | 204 kts | 135° |
| 2026-04-22 18:57 | 50.96609 | 7.00441 | 2583 ft | 193 kts | 134° |
| 2026-04-22 18:57 | 50.95645 | 7.01846 | 2317 ft | 185 kts | 133° |
| 2026-04-22 18:58 | 50.94707 | 7.03215 | 2064 ft | 181 kts | 133° |
| 2026-04-22 18:58 | 50.93788 | 7.04553 | 1815 ft | 177 kts | 133° |
| 2026-04-22 18:58 | 50.92933 | 7.05794 | 1568 ft | 159 kts | 133° |
| 2026-04-22 18:58 | 50.92162 | 7.06916 | 1376 ft | 144 kts | 133° |
| 2026-04-22 18:59 | 50.91438 | 7.07972 | 1173 ft | 140 kts | 134° |
| 2026-04-22 18:59 | 50.90725 | 7.09010 | 984 ft | 139 kts | 133° |
| 2026-04-22 18:59 | 50.90017 | 7.10039 | 798 ft | 138 kts | 134° |
| 2026-04-22 18:59 | 50.89310 | 7.11066 | 623 ft | 138 kts | 134° |
| 2026-04-22 19:00 | 50.88609 | 7.12100 | 425 ft | 138 kts | 133° |
| 2026-04-22 19:00 | 50.87905 | 7.13120 | 266 ft | 137 kts | 135° |
| 2026-04-22 19:00 | 50.87271 | 7.14044 | 254 ft | 102 kts | 136° |
| 2026-04-22 19:00 | 50.86892 | 7.14578 | 255 ft | 42 kts | 137° |
| 2026-04-22 19:01 | 50.86695 | 7.14869 | 258 ft | 37 kts | 139° |
| 2026-04-22 19:01 | 50.86514 | 7.15129 | 266 ft | 33 kts | 137° |
| 2026-04-22 19:01 | 50.86330 | 7.15298 | 271 ft | 30 kts | 163° |
| 2026-04-22 19:01 | 50.86158 | 7.15359 | 276 ft | 16 kts | 169° |
| 2026-04-22 19:02 | 50.86065 | 7.15303 | 276 ft | 14 kts | 226° |
| 2026-04-22 19:02 | 50.86041 | 7.15171 | 276 ft | 12 kts | 281° |
| 2026-04-22 19:02 | 50.86087 | 7.15070 | 275 ft | 11 kts | 319° |
| 2026-04-22 19:02 | 50.86149 | 7.14979 | 272 ft | 13 kts | 316° |
| 2026-04-22 19:03 | 50.86221 | 7.14873 | 270 ft | 16 kts | 317° |
| 2026-04-22 19:03 | 50.86312 | 7.14747 | 266 ft | 20 kts | 318° |
| 2026-04-22 19:03 | 50.86424 | 7.14583 | 263 ft | 24 kts | 317° |
| 2026-04-22 19:03 | 50.86527 | 7.14434 | 258 ft | 13 kts | 317° |
| 2026-04-22 19:04 | 50.86595 | 7.14338 | 258 ft | 13 kts | 318° |
| 2026-04-22 19:04 | 50.86664 | 7.14234 | 257 ft | 15 kts | 318° |
| 2026-04-22 19:04 | 50.86758 | 7.14143 | 252 ft | 18 kts | 359° |
| 2026-04-22 19:04 | 50.86822 | 7.14067 | 248 ft | 12 kts | 320° |
| 2026-04-22 19:05 | 50.86889 | 7.13967 | 243 ft | 15 kts | 315° |
| 2026-04-22 19:05 | 50.86973 | 7.13851 | 243 ft | 17 kts | 320° |
| 2026-04-22 19:05 | 50.87068 | 7.13718 | 241 ft | 20 kts | 318° |
| 2026-04-22 19:05 | 50.87167 | 7.13564 | 238 ft | 18 kts | 319° |
| 2026-04-22 19:06 | 50.87221 | 7.13492 | 237 ft | 6 kts | 320° |
| 2026-04-22 19:06 | 50.87254 | 7.13446 | 242 ft | 7 kts | 318° |
| 2026-04-22 19:06 | 50.87295 | 7.13388 | 238 ft | 12 kts | 318° |
| 2026-04-22 19:07 | 50.87479 | 7.13119 | 232 ft | 19 kts | 318° |
| 2026-04-22 19:07 | 50.87577 | 7.12977 | 232 ft | 17 kts | 317° |
| 2026-04-22 19:07 | 50.87671 | 7.12843 | 230 ft | 19 kts | 318° |
| 2026-04-22 19:07 | 50.87741 | 7.12738 | 230 ft | 10 kts | 316° |
| 2026-04-22 19:08 | 50.87787 | 7.12670 | 230 ft | 8 kts | 316° |
| 2026-04-22 19:08 | 50.87829 | 7.12619 | 230 ft | 7 kts | 337° |
| 2026-04-22 19:08 | 50.87873 | 7.12608 | 230 ft | 6 kts | 358° |
| 2026-04-22 19:08 | 50.87907 | 7.12613 | 230 ft | 4 kts | 359° |
| 2026-04-22 19:09 | 50.87935 | 7.12592 | 232 ft | 6 kts | 321° |
| 2026-04-22 19:09 | 50.87974 | 7.12533 | 230 ft | 8 kts | 317° |
| 2026-04-22 19:09 | 50.88000 | 7.12496 | 230 ft | 7 kts | 317° |
| 2026-04-22 19:09 | 50.88055 | 7.12413 | 230 ft | 4 kts | 314° |
| 2026-04-22 19:10 | 50.88058 | 7.12387 | 230 ft | 2 kts | 257° |
| 2026-04-22 19:10 | 50.88036 | 7.12353 | 231 ft | 6 kts | 218° |
| 2026-04-22 19:10 | 50.88000 | 7.12311 | 232 ft | 7 kts | 216° |
| 2026-04-22 19:10 | 50.87985 | 7.12301 | 230 ft | 1 kts | 193° |
| 2026-04-22 19:11 | 50.87964 | 7.12300 | 230 ft | 1 kts | 180° |
| 2026-04-22 19:11 | 50.87957 | 7.12301 | 230 ft | 1 kts | 175° |
| 2026-04-22 19:11 | 50.87953 | 7.12302 | 230 ft | 0 kts | 175° |
| 2026-04-22 19:11 | 50.87944 | 7.12303 | 230 ft | 1 kts | 175° |
| 2026-04-22 19:12 | 50.87939 | 7.12304 | 230 ft | 2 kts | 175° |
| 2026-04-22 19:12 | 50.87933 | 7.12304 | 230 ft | 0 kts | 175° |